createdAt,value
2023-02-20T00:00:58.722Z,1.00
2023-02-20T00:03:26.301Z,1.50
2023-02-20T00:05:52.731Z,1.08
2023-02-20T00:08:19.130Z,1.00
2023-02-20T00:10:45.590Z,1.45
2023-02-20T00:13:12.007Z,1.13
2023-02-20T00:15:38.502Z,1.30
2023-02-20T00:18:04.913Z,1.30
2023-02-20T00:20:31.330Z,1.17
2023-02-20T00:22:58.892Z,1.70
2023-02-20T00:25:25.342Z,1.35
2023-02-20T00:27:51.773Z,1.35
2023-02-20T00:30:20.203Z,1.30
2023-02-20T00:32:47.399Z,1.65
2023-02-20T00:35:13.911Z,1.30
2023-02-20T00:37:40.333Z,1.10
2023-02-20T00:40:07.226Z,1.25
2023-02-20T00:42:33.633Z,1.00
2023-02-20T00:45:00.093Z,1.40
2023-02-20T00:47:26.508Z,0.95
2023-02-20T00:49:52.906Z,1.30
2023-02-20T00:52:19.546Z,1.23
2023-02-20T00:54:45.948Z,1.67
2023-02-20T00:57:12.358Z,1.20
2023-02-20T00:59:38.761Z,1.30
2023-02-20T01:02:05.154Z,1.42
2023-02-20T01:04:31.561Z,1.10
2023-02-20T01:06:57.964Z,1.17
2023-02-20T01:09:24.384Z,1.27
2023-02-20T01:11:50.787Z,1.30
2023-02-20T01:14:17.224Z,1.55
2023-02-20T01:16:45.035Z,1.30
2023-02-20T01:19:11.658Z,1.40
2023-02-20T01:21:38.042Z,1.58
2023-02-20T01:24:04.620Z,1.23
2023-02-20T01:26:31.023Z,1.25
2023-02-20T01:28:57.447Z,1.40
2023-02-20T01:31:23.932Z,1.42
2023-02-20T01:33:50.413Z,1.20
2023-02-20T01:36:16.828Z,1.27
2023-02-20T01:38:43.254Z,1.40
2023-02-20T01:41:09.984Z,1.45
2023-02-20T01:43:36.468Z,1.25
2023-02-20T01:46:27.406Z,1.45
2023-02-20T01:49:05.420Z,1.38
2023-02-20T01:51:37.023Z,1.42
2023-02-20T01:54:04.725Z,1.33
2023-02-20T01:56:31.126Z,1.45
2023-02-20T01:58:57.518Z,1.75
2023-02-20T02:01:23.928Z,1.35
2023-02-20T02:03:52.141Z,1.48
2023-02-20T02:06:18.548Z,1.58
2023-02-20T02:08:44.935Z,1.20
2023-02-20T02:11:13.635Z,1.60
2023-02-20T02:13:40.158Z,1.73
2023-02-20T02:16:12.507Z,1.60
2023-02-20T02:18:41.911Z,1.45
2023-02-20T02:21:26.719Z,1.70
2023-02-20T02:24:11.757Z,1.90
2023-02-20T02:26:50.136Z,1.88
2023-02-20T02:29:22.561Z,1.52
2023-02-20T02:32:01.099Z,1.80
2023-02-20T02:35:04.805Z,2.05
2023-02-20T02:37:44.101Z,1.83
2023-02-20T02:40:26.454Z,1.95
2023-02-20T02:43:09.279Z,2.15
2023-02-20T02:45:52.064Z,1.48
2023-02-20T02:48:33.613Z,2.72
2023-02-20T02:51:03.669Z,2.80
2023-02-20T02:53:30.059Z,2.35
2023-02-20T02:55:56.463Z,2.80
2023-02-20T02:58:22.870Z,2.10
2023-02-20T03:00:57.552Z,2.47
2023-02-20T03:03:29.208Z,2.92
2023-02-20T03:06:00.677Z,2.53
2023-02-20T03:08:47.521Z,2.92
2023-02-20T03:11:18.501Z,2.67
2023-02-20T03:13:51.445Z,3.08
2023-02-20T03:16:19.109Z,3.10
2023-02-20T03:18:45.497Z,3.25
2023-02-20T03:21:15.335Z,2.63
2023-02-20T03:26:16.011Z,2.33
2023-02-20T03:29:06.009Z,3.00
2023-02-20T03:31:35.524Z,2.45
2023-02-20T03:34:06.582Z,2.47
2023-02-20T03:36:35.518Z,3.10
2023-02-20T03:39:15.046Z,2.47
2023-02-20T03:41:41.475Z,3.60
2023-02-20T03:44:07.885Z,3.03
2023-02-20T03:46:35.141Z,3.10
2023-02-20T03:49:07.241Z,2.90
2023-02-20T03:51:33.627Z,2.90
2023-02-20T03:54:00.044Z,2.80
2023-02-20T03:56:45.035Z,2.83
2023-02-20T03:59:26.386Z,2.25
2023-02-20T04:01:55.193Z,2.60
2023-02-20T04:04:24.970Z,3.03
2023-02-20T04:09:21.240Z,3.47
2023-02-20T04:11:49.969Z,2.90
2023-02-20T04:14:16.396Z,3.45
2023-02-20T04:16:45.592Z,2.97
2023-02-20T04:19:12.019Z,2.83
2023-02-20T04:21:59.057Z,2.67
2023-02-20T04:24:50.153Z,3.60
2023-02-20T04:27:16.548Z,2.90
2023-02-20T04:29:42.929Z,3.53
2023-02-20T04:32:09.330Z,3.17
2023-02-20T04:34:35.725Z,3.90
2023-02-20T04:37:16.252Z,3.60
2023-02-20T04:39:42.730Z,3.55
2023-02-20T04:42:09.670Z,4.03
2023-02-20T04:44:36.046Z,3.70
2023-02-20T04:47:07.312Z,4.20
2023-02-20T04:49:33.788Z,3.67
2023-02-20T04:52:00.334Z,4.13
2023-02-20T04:54:26.775Z,4.22
2023-02-20T04:56:53.284Z,4.32
2023-02-20T04:59:19.689Z,4.57
2023-02-20T05:01:46.148Z,4.10
2023-02-20T05:04:12.572Z,4.35
2023-02-20T05:06:43.396Z,4.25
2023-02-20T05:09:09.795Z,4.13
2023-02-20T05:11:37.280Z,4.20
2023-02-20T05:14:04.232Z,4.93
2023-02-20T05:16:30.625Z,4.43
2023-02-20T05:18:57.043Z,3.70
2023-02-20T05:21:23.468Z,5.20
2023-02-20T05:23:49.880Z,5.03
2023-02-20T05:26:21.004Z,4.97
2023-02-20T05:28:47.407Z,5.40
2023-02-20T05:31:16.999Z,4.75
2023-02-20T05:33:43.980Z,4.65
2023-02-20T05:36:10.542Z,4.53
2023-02-20T05:38:37.157Z,5.60
2023-02-20T05:41:03.562Z,5.57
2023-02-20T05:43:29.972Z,4.78
2023-02-20T05:45:56.358Z,6.20
2023-02-20T05:48:22.755Z,5.05
2023-02-20T05:50:49.171Z,4.38
2023-02-20T05:53:15.561Z,5.32
2023-02-20T05:55:41.966Z,5.47
2023-02-20T05:58:08.362Z,5.88
2023-02-20T06:00:34.790Z,5.97
2023-02-20T06:03:01.199Z,5.55
2023-02-20T06:05:27.609Z,6.13
2023-02-20T06:07:53.999Z,6.60
2023-02-20T06:10:20.540Z,5.82
2023-02-20T06:12:46.979Z,5.75
2023-02-20T06:15:13.385Z,5.68
2023-02-20T06:17:39.785Z,5.88
2023-02-20T06:20:06.614Z,5.43
2023-02-20T06:22:33.075Z,6.00
2023-02-20T06:24:59.472Z,6.13
2023-02-20T06:27:25.877Z,5.68
2023-02-20T06:29:52.256Z,5.78
2023-02-20T06:32:18.734Z,6.60
2023-02-20T06:34:45.203Z,7.28
2023-02-20T06:37:11.696Z,5.85
2023-02-20T06:39:38.091Z,6.10
2023-02-20T06:42:04.810Z,5.47
2023-02-20T06:44:31.224Z,6.03
2023-02-20T06:46:57.703Z,6.15
2023-02-20T06:49:24.092Z,7.03
2023-02-20T06:51:53.000Z,6.70
2023-02-20T06:54:19.421Z,6.85
2023-02-20T06:56:45.839Z,7.07
2023-02-20T06:59:12.453Z,7.30
2023-02-20T07:01:40.123Z,8.10
2023-02-20T07:04:06.897Z,8.32
2023-02-20T07:06:33.310Z,7.70
2023-02-20T07:08:59.706Z,8.27
2023-02-20T07:11:26.088Z,8.93
2023-02-20T07:13:52.500Z,8.48
2023-02-20T07:16:18.960Z,7.97
2023-02-20T07:18:45.404Z,8.93
2023-02-20T07:21:11.815Z,9.05
2023-02-20T07:23:38.238Z,9.13
2023-02-20T07:26:04.720Z,8.85
2023-02-20T07:28:31.137Z,7.93
2023-02-20T07:30:57.557Z,8.90
2023-02-20T07:33:23.963Z,9.98
2023-02-20T07:35:50.395Z,10.25
2023-02-20T07:38:20.898Z,10.07
2023-02-20T07:40:50.459Z,9.85
2023-02-20T07:43:25.262Z,9.63
2023-02-20T07:45:52.216Z,10.02
2023-02-20T07:48:19.165Z,9.77
2023-02-20T07:50:45.630Z,10.95
2023-02-20T07:53:16.185Z,11.68
2023-02-20T07:55:42.675Z,10.63
2023-02-20T07:58:09.198Z,11.07
2023-02-20T08:00:35.669Z,11.10
2023-02-20T08:03:02.171Z,11.38
2023-02-20T08:05:32.793Z,10.93
2023-02-20T08:08:03.941Z,12.10
2023-02-20T08:10:30.387Z,10.90
2023-02-20T08:12:56.830Z,10.98
2023-02-20T08:15:23.306Z,9.95
2023-02-20T08:17:52.193Z,11.20
2023-02-20T08:20:19.451Z,10.27
2023-02-20T08:22:46.009Z,11.32
2023-02-20T08:25:12.459Z,12.48
2023-02-20T08:27:42.464Z,10.07
2023-02-20T08:30:11.704Z,11.45
2023-02-20T08:32:38.306Z,11.50
2023-02-20T08:35:10.780Z,10.45
2023-02-20T08:37:37.242Z,12.77
2023-02-20T08:40:03.830Z,9.88
2023-02-20T08:42:30.252Z,10.65
2023-02-20T08:44:56.652Z,13.20
2023-02-20T08:47:23.073Z,12.10
2023-02-20T08:49:49.513Z,12.90
2023-02-20T08:52:15.929Z,11.32
2023-02-20T08:54:49.786Z,12.45
2023-02-20T08:57:16.549Z,12.07
2023-02-20T08:59:43.390Z,10.27
2023-02-20T09:02:16.894Z,11.63
2023-02-20T09:04:44.437Z,10.90
2023-02-20T09:07:10.993Z,12.18
2023-02-20T09:09:37.426Z,11.20
2023-02-20T09:12:04.082Z,11.38
2023-02-20T09:14:30.634Z,11.82
2023-02-20T09:16:57.087Z,10.80
2023-02-20T09:19:23.539Z,11.25
2023-02-20T09:21:50.012Z,11.25
2023-02-20T09:24:16.416Z,11.57
2023-02-20T09:26:43.874Z,12.88
2023-02-20T09:29:10.348Z,13.40
2023-02-20T09:31:36.883Z,10.20
2023-02-20T09:34:03.360Z,13.88
2023-02-20T09:36:29.769Z,10.45
2023-02-20T09:38:56.153Z,13.52
2023-02-20T09:41:35.984Z,11.85
2023-02-20T09:44:14.933Z,11.98
2023-02-20T09:46:44.541Z,11.40
2023-02-20T09:49:31.549Z,11.60
2023-02-20T09:52:03.325Z,10.77
2023-02-20T09:54:49.345Z,11.45
2023-02-20T09:57:25.349Z,11.80
2023-02-20T09:59:54.028Z,11.07
2023-02-20T10:02:27.224Z,10.65
2023-02-20T10:05:01.301Z,11.10
2023-02-20T10:07:36.712Z,9.77
2023-02-20T10:10:24.382Z,8.73
2023-02-20T10:13:18.567Z,8.43
2023-02-20T10:16:13.299Z,8.98
2023-02-20T10:18:58.588Z,9.23
2023-02-20T10:21:46.676Z,8.70
2023-02-20T10:24:42.382Z,9.05
2023-02-20T10:27:46.368Z,9.50
2023-02-20T10:30:15.317Z,7.10
2023-02-20T10:32:52.268Z,8.02
2023-02-20T10:35:22.551Z,7.03
2023-02-20T10:37:53.505Z,6.85
2023-02-20T10:40:33.490Z,6.68
2023-02-20T10:43:05.884Z,7.03
2023-02-20T10:45:35.217Z,6.60
2023-02-20T10:48:05.343Z,6.35
2023-02-20T10:50:36.633Z,5.82
2023-02-20T10:53:21.064Z,5.88
2023-02-20T10:56:32.917Z,6.38
2023-02-20T10:59:21.119Z,5.88
2023-02-20T11:01:49.330Z,6.20
2023-02-20T11:04:21.871Z,6.05
2023-02-20T11:06:57.366Z,6.47
2023-02-20T11:09:23.983Z,6.05
2023-02-20T11:11:50.385Z,5.70
2023-02-20T11:14:40.895Z,5.72
2023-02-20T11:17:12.905Z,5.93
2023-02-20T11:19:47.278Z,5.53
2023-02-20T11:22:14.057Z,4.97
2023-02-20T11:24:45.560Z,4.32
2023-02-20T11:27:22.492Z,3.88
2023-02-20T11:29:49.748Z,3.47
2023-02-20T11:32:26.435Z,4.78
2023-02-20T11:35:17.690Z,4.38
2023-02-20T11:37:55.310Z,4.50
2023-02-20T11:40:28.610Z,3.92
2023-02-20T11:42:55.201Z,3.92
2023-02-20T11:45:26.262Z,3.97
2023-02-20T11:48:12.407Z,3.88
2023-02-20T11:50:46.036Z,3.80
2023-02-20T11:53:19.501Z,3.22
2023-02-20T11:55:54.898Z,3.50
2023-02-20T11:58:26.600Z,2.97
2023-02-20T12:00:53.930Z,2.75
2023-02-20T12:03:24.043Z,2.80
2023-02-20T12:05:50.598Z,3.50
2023-02-20T12:08:38.487Z,3.13
2023-02-20T12:11:16.125Z,3.38
2023-02-20T12:13:47.384Z,3.58
2023-02-20T12:16:32.059Z,2.40
2023-02-20T12:19:10.655Z,2.42
2023-02-20T12:22:10.777Z,2.40
2023-02-20T12:24:58.882Z,2.70
2023-02-20T12:27:43.676Z,2.78
2023-02-20T12:30:49.018Z,2.42
2023-02-20T12:33:33.671Z,2.10
2023-02-20T12:36:03.158Z,2.63
2023-02-20T12:38:39.290Z,2.30
2023-02-20T12:41:25.270Z,2.63
2023-02-20T12:44:13.001Z,2.42
2023-02-20T12:46:58.880Z,2.40
2023-02-20T12:49:34.188Z,2.53
2023-02-20T12:52:22.396Z,2.20
2023-02-20T12:54:57.320Z,2.28
2023-02-20T12:57:34.165Z,2.17
2023-02-20T13:00:06.958Z,2.58
2023-02-20T13:02:42.948Z,2.80
2023-02-20T13:05:22.806Z,2.13
2023-02-20T13:07:56.782Z,2.20
2023-02-20T13:10:34.380Z,2.60
2023-02-20T13:13:00.835Z,2.03
2023-02-20T13:15:42.305Z,2.67
2023-02-20T13:18:27.293Z,2.45
2023-02-20T13:20:58.574Z,2.60
2023-02-20T13:23:32.946Z,1.80
2023-02-20T13:25:59.422Z,2.58
2023-02-20T13:28:33.924Z,2.88
2023-02-20T13:31:12.404Z,2.83
2023-02-20T13:33:40.159Z,2.45
2023-02-20T13:36:12.593Z,2.72
2023-02-20T13:38:39.159Z,2.20
2023-02-20T13:41:09.073Z,2.63
2023-02-20T13:43:38.941Z,3.55
2023-02-20T13:46:05.239Z,2.70
2023-02-20T13:48:31.573Z,2.30
2023-02-20T13:51:20.989Z,2.83
2023-02-20T13:53:53.659Z,2.50
2023-02-20T13:56:26.554Z,2.40
2023-02-20T13:58:54.795Z,2.83
2023-02-20T14:01:21.264Z,2.58
2023-02-20T14:04:00.287Z,2.88
2023-02-20T14:06:26.699Z,3.58
2023-02-20T14:08:53.100Z,2.83
2023-02-20T14:11:28.592Z,2.60
2023-02-20T14:13:55.697Z,2.70
2023-02-20T14:16:33.653Z,2.55
2023-02-20T14:19:01.944Z,3.00
2023-02-20T14:21:28.444Z,2.22
2023-02-20T14:23:54.890Z,2.50
2023-02-20T14:26:39.490Z,2.88
2023-02-20T14:29:07.678Z,2.95
2023-02-20T14:31:35.907Z,3.67
2023-02-20T14:34:11.871Z,2.78
2023-02-20T14:36:47.378Z,3.10
2023-02-20T14:39:20.585Z,2.38
2023-02-20T14:42:01.479Z,2.80
2023-02-20T14:44:28.272Z,2.28
2023-02-20T14:46:56.645Z,2.70
2023-02-20T14:49:25.607Z,2.40
2023-02-20T14:51:52.379Z,2.78
2023-02-20T14:54:21.876Z,2.90
2023-02-20T14:56:48.888Z,2.78
2023-02-20T14:59:22.837Z,3.08
2023-02-20T15:01:49.274Z,2.10
2023-02-20T15:04:16.817Z,3.03
2023-02-20T15:06:45.268Z,2.83
2023-02-20T15:09:22.038Z,2.47
2023-02-20T15:11:58.246Z,1.90
2023-02-20T15:14:26.966Z,2.17
2023-02-20T15:17:07.068Z,2.35
2023-02-20T15:19:41.192Z,1.67
2023-02-20T15:22:22.678Z,2.03
2023-02-20T15:24:49.126Z,2.38
2023-02-20T15:27:20.103Z,2.50
2023-02-20T15:29:46.863Z,3.00
2023-02-20T15:32:23.988Z,2.95
2023-02-20T15:34:54.816Z,3.42
2023-02-20T15:37:27.071Z,2.53
2023-02-20T15:40:24.490Z,2.88
2023-02-20T15:42:51.251Z,2.65
2023-02-20T15:45:17.939Z,2.80
2023-02-20T15:47:44.418Z,3.10
2023-02-20T15:50:10.881Z,2.90
2023-02-20T15:52:37.252Z,2.85
2023-02-20T15:55:03.896Z,3.75
2023-02-20T15:57:30.274Z,2.70
2023-02-20T15:59:56.731Z,3.22
2023-02-20T16:02:24.508Z,3.15
2023-02-20T16:04:51.430Z,3.63
2023-02-20T16:07:18.535Z,3.40
2023-02-20T16:09:45.090Z,3.40
2023-02-20T16:12:23.180Z,3.78
2023-02-20T16:14:49.600Z,3.88
2023-02-20T16:17:20.140Z,3.47
2023-02-20T16:19:46.564Z,3.72
2023-02-20T16:22:12.998Z,3.25
2023-02-20T16:24:39.435Z,3.33
2023-02-20T16:27:21.626Z,3.65
2023-02-20T16:29:49.346Z,4.60
2023-02-20T16:32:26.159Z,3.60
2023-02-20T16:34:53.241Z,2.90
2023-02-20T16:37:19.708Z,3.53
2023-02-20T16:39:46.119Z,3.20
2023-02-20T16:42:37.599Z,3.85
2023-02-20T16:45:10.544Z,3.72
2023-02-20T16:47:36.967Z,3.40
2023-02-20T16:50:03.581Z,3.30
2023-02-20T16:52:37.115Z,4.25
2023-02-20T16:55:07.923Z,3.35
2023-02-20T16:57:34.524Z,3.53
2023-02-20T17:00:01.012Z,4.15
2023-02-20T17:02:30.009Z,3.58
2023-02-20T17:04:56.528Z,3.25
2023-02-20T17:07:22.990Z,3.10
2023-02-20T17:09:49.419Z,3.00
2023-02-20T17:12:18.264Z,2.70
2023-02-20T17:14:45.185Z,2.60
2023-02-20T17:17:11.625Z,3.60
2023-02-20T17:19:38.972Z,2.78
2023-02-20T17:22:05.953Z,2.45
2023-02-20T17:24:32.417Z,2.60
2023-02-20T17:26:59.583Z,2.33
2023-02-20T17:29:26.688Z,2.45
2023-02-20T17:31:54.457Z,2.50
2023-02-20T17:34:21.011Z,1.90
2023-02-20T17:36:47.519Z,1.80
2023-02-20T17:39:15.176Z,3.10
2023-02-20T17:41:41.587Z,2.10
2023-02-20T17:44:08.001Z,2.13
2023-02-20T17:46:34.470Z,1.92
2023-02-20T17:49:00.964Z,2.10
2023-02-20T17:51:27.348Z,2.00
2023-02-20T17:53:53.769Z,2.00
2023-02-20T17:56:20.205Z,2.20
2023-02-20T17:58:46.631Z,2.45
2023-02-20T18:01:13.085Z,1.80
2023-02-20T18:03:39.725Z,2.15
2023-02-20T18:06:06.314Z,2.00
2023-02-20T18:08:33.781Z,1.83
2023-02-20T18:11:00.219Z,2.60
2023-02-20T18:13:31.030Z,1.67
2023-02-20T18:15:58.683Z,2.40
2023-02-20T18:18:25.283Z,2.38
2023-02-20T18:20:51.764Z,2.35
2023-02-20T18:23:21.669Z,2.47
2023-02-20T18:25:53.518Z,3.05
2023-02-20T18:28:20.169Z,2.70
2023-02-20T18:30:46.720Z,2.88
2023-02-20T18:33:16.589Z,2.40
2023-02-20T18:35:50.626Z,3.20
2023-02-20T18:38:25.166Z,3.60
2023-02-20T18:40:51.727Z,3.03
2023-02-20T18:43:18.380Z,2.90
2023-02-20T18:45:45.017Z,3.00
2023-02-20T18:48:11.843Z,2.83
2023-02-20T18:50:38.730Z,3.08
2023-02-20T18:53:05.437Z,3.05
2023-02-20T18:55:32.029Z,2.78
2023-02-20T18:57:58.697Z,3.35
2023-02-20T19:00:28.133Z,2.90
2023-02-20T19:02:55.664Z,3.30
2023-02-20T19:05:24.481Z,2.85
2023-02-20T19:07:51.022Z,4.15
2023-02-20T19:10:22.311Z,3.38
2023-02-20T19:12:49.364Z,3.28
2023-02-20T19:15:16.105Z,3.20
2023-02-20T19:17:43.796Z,3.47
2023-02-20T19:20:16.261Z,3.42
2023-02-20T19:22:42.657Z,3.38
2023-02-20T19:25:09.473Z,3.30
2023-02-20T19:27:35.915Z,3.95
2023-02-20T19:30:02.359Z,4.05
2023-02-20T19:32:29.015Z,3.38
2023-02-20T19:34:55.510Z,3.85
2023-02-20T19:37:21.935Z,3.58
2023-02-20T19:39:48.348Z,4.68
2023-02-20T19:42:15.498Z,4.22
2023-02-20T19:44:41.877Z,3.92
2023-02-20T19:47:08.407Z,4.25
2023-02-20T19:49:34.862Z,3.10
2023-02-20T19:52:01.439Z,2.95
2023-02-20T19:54:28.735Z,3.30
2023-02-20T19:56:59.407Z,3.53
2023-02-20T19:59:25.826Z,3.15
2023-02-20T20:01:56.445Z,2.78
2023-02-20T20:04:23.762Z,2.85
2023-02-20T20:06:50.217Z,2.90
2023-02-20T20:09:30.111Z,2.85
2023-02-20T20:12:00.207Z,3.00
2023-02-20T20:14:26.647Z,2.50
2023-02-20T20:16:53.207Z,1.85
2023-02-20T20:19:19.679Z,2.22
2023-02-20T20:21:47.977Z,1.98
2023-02-20T20:24:14.398Z,1.65
2023-02-20T20:26:40.895Z,1.92
2023-02-20T20:29:07.293Z,1.90
2023-02-20T20:31:38.325Z,2.42
2023-02-20T20:34:05.288Z,2.10
2023-02-20T20:36:32.808Z,2.40
2023-02-20T20:38:59.303Z,1.90
2023-02-20T20:41:30.391Z,2.25
2023-02-20T20:44:00.785Z,2.47
2023-02-20T20:46:27.240Z,2.95
2023-02-20T20:48:54.385Z,2.25
2023-02-20T20:51:20.801Z,2.78
2023-02-20T20:53:47.226Z,2.95
2023-02-20T20:56:13.626Z,3.25
2023-02-20T20:58:40.133Z,3.05
2023-02-20T21:01:06.955Z,2.60
2023-02-20T21:03:33.415Z,3.40
2023-02-20T21:05:59.874Z,2.90
2023-02-20T21:08:26.308Z,3.08
2023-02-20T21:10:52.706Z,2.65
2023-02-20T21:13:19.122Z,2.42
2023-02-20T21:15:45.644Z,2.65
2023-02-20T21:18:14.821Z,2.78
2023-02-20T21:20:41.259Z,2.65
2023-02-20T21:23:07.668Z,2.88
2023-02-20T21:25:34.082Z,2.20
2023-02-20T21:28:00.496Z,2.08
2023-02-20T21:30:26.938Z,2.58
2023-02-20T21:32:53.803Z,2.20
2023-02-20T21:35:20.866Z,2.20
2023-02-20T21:37:47.714Z,2.10
2023-02-20T21:40:18.032Z,1.83
2023-02-20T21:42:46.072Z,1.85
2023-02-20T21:45:12.513Z,2.22
2023-02-20T21:47:38.901Z,2.08
2023-02-20T21:50:06.283Z,1.90
2023-02-20T21:52:32.685Z,1.95
2023-02-20T21:54:59.179Z,1.60
2023-02-20T21:57:25.910Z,1.67
2023-02-20T21:59:52.340Z,1.63
2023-02-20T22:02:19.824Z,2.30
2023-02-20T22:04:46.237Z,2.10
2023-02-20T22:07:13.044Z,1.85
2023-02-20T22:09:39.480Z,1.58
2023-02-20T22:12:06.093Z,1.90
2023-02-20T22:14:32.573Z,1.40
2023-02-20T22:16:58.967Z,1.60
2023-02-20T22:19:25.380Z,1.85
2023-02-20T22:21:51.838Z,1.70
2023-02-20T22:24:22.345Z,1.83
2023-02-20T22:26:51.126Z,1.95
2023-02-20T22:29:17.522Z,2.15
2023-02-20T22:31:44.010Z,2.25
2023-02-20T22:34:10.506Z,1.83
2023-02-20T22:36:36.966Z,2.00
2023-02-20T22:39:03.896Z,1.77
2023-02-20T22:41:30.291Z,2.00
2023-02-20T22:43:56.725Z,1.63
2023-02-20T22:46:23.147Z,1.65
2023-02-20T22:48:49.592Z,2.05
2023-02-20T22:51:16.312Z,1.33
2023-02-20T22:53:45.577Z,1.83
2023-02-20T22:56:21.634Z,1.90
2023-02-20T22:58:48.031Z,1.60
2023-02-20T23:01:15.413Z,1.42
2023-02-20T23:03:42.121Z,1.77
2023-02-20T23:06:17.632Z,1.63
2023-02-20T23:08:45.692Z,1.88
2023-02-20T23:11:12.590Z,2.17
2023-02-20T23:13:39.175Z,2.85
2023-02-20T23:16:05.758Z,2.40
2023-02-20T23:18:32.188Z,2.45
2023-02-20T23:20:58.575Z,2.25
2023-02-20T23:23:24.990Z,2.08
2023-02-20T23:25:51.420Z,2.45
2023-02-20T23:28:20.346Z,1.90
2023-02-20T23:30:46.786Z,1.90
2023-02-20T23:33:13.220Z,1.73
2023-02-20T23:35:39.614Z,2.00
2023-02-20T23:38:06.113Z,1.80
2023-02-20T23:40:36.767Z,2.15
2023-02-20T23:43:04.738Z,2.05
2023-02-20T23:45:31.148Z,1.88
2023-02-20T23:47:57.549Z,2.10
2023-02-20T23:50:23.965Z,1.83
2023-02-20T23:52:50.364Z,1.90
2023-02-20T23:55:16.764Z,2.63
2023-02-20T23:57:43.166Z,2.00
